createdAt,value
2022-11-19T01:01:45.535Z,6.46
2022-11-19T01:06:47.678Z,5.47
2022-11-19T01:11:46.786Z,5.31
2022-11-19T01:16:47.888Z,5.31
2022-11-19T01:21:49.008Z,5.31
2022-11-19T01:26:50.103Z,5.31
2022-11-19T01:31:52.203Z,5.31
2022-11-19T01:36:51.279Z,5.31
2022-11-19T01:41:52.362Z,5.31
2022-11-19T01:46:53.449Z,5.15
2022-11-19T01:51:54.538Z,5.15
2022-11-19T01:56:56.635Z,5.15
2022-11-19T02:01:55.720Z,5.15
2022-11-19T02:06:56.854Z,5.15
2022-11-19T02:11:58.953Z,5.15
2022-11-19T02:16:59.028Z,5.31
2022-11-19T02:21:59.110Z,5.31
2022-11-19T02:26:59.195Z,5.31
2022-11-19T02:31:59.272Z,5.47
2022-11-19T02:36:58.402Z,5.63
2022-11-19T02:42:00.507Z,5.79
2022-11-19T02:46:59.624Z,5.79
2022-11-19T02:52:00.766Z,5.79
2022-11-19T02:57:03.172Z,5.94
2022-11-19T03:02:03.323Z,5.94
2022-11-19T03:07:02.467Z,5.94
2022-11-19T03:12:03.538Z,5.94
2022-11-19T03:17:04.625Z,5.63
2022-11-19T03:22:05.703Z,5.47
2022-11-19T03:27:06.796Z,5.47
2022-11-19T03:32:09.884Z,5.47
2022-11-19T03:37:08.968Z,5.47
2022-11-19T03:42:13.073Z,5.47
2022-11-19T03:47:10.161Z,5.31
2022-11-19T03:52:13.248Z,5.15
2022-11-19T03:57:13.358Z,5.15
2022-11-19T04:02:12.489Z,5.47
2022-11-19T04:07:13.794Z,5.63
2022-11-19T04:12:14.962Z,5.63
2022-11-19T04:17:16.067Z,5.15
2022-11-19T04:22:18.165Z,5.31
2022-11-19T04:27:18.293Z,5.47
2022-11-19T04:32:18.526Z,5.47
2022-11-19T04:37:17.612Z,5.63
2022-11-19T04:42:18.713Z,5.79
2022-11-19T04:47:19.808Z,5.79
2022-11-19T04:52:20.900Z,5.79
2022-11-19T04:57:22.984Z,5.79
2022-11-19T05:02:23.067Z,5.94
2022-11-19T05:07:24.284Z,5.94
2022-11-19T05:12:23.363Z,5.94
2022-11-19T05:17:24.451Z,4.95
2022-11-19T05:22:26.532Z,4.95
2022-11-19T05:27:29.554Z,4.80
2022-11-19T05:32:26.639Z,5.79
2022-11-19T05:37:27.787Z,5.47
2022-11-19T05:42:33.755Z,5.31
2022-11-19T05:47:28.826Z,4.48
2022-11-19T05:52:30.925Z,4.64
2022-11-19T05:57:30.046Z,4.95
2022-11-19T06:02:31.254Z,4.95
2022-11-19T06:07:32.388Z,4.95
2022-11-19T06:12:34.485Z,5.11
2022-11-19T06:17:33.572Z,5.11
2022-11-19T06:22:34.677Z,5.11
2022-11-19T06:27:36.760Z,5.26
2022-11-19T06:32:36.841Z,5.26
2022-11-19T06:37:36.260Z,5.26
2022-11-19T06:42:37.360Z,5.26
2022-11-19T06:47:40.517Z,5.26
2022-11-19T06:52:39.627Z,5.26
2022-11-19T06:57:40.750Z,5.26
2022-11-19T07:02:42.920Z,5.41
2022-11-19T07:07:42.057Z,5.26
2022-11-19T07:12:43.231Z,5.26
2022-11-19T07:17:44.338Z,5.41
2022-11-19T07:22:45.473Z,5.56
2022-11-19T07:27:47.608Z,5.26
2022-11-19T07:32:47.730Z,5.26
2022-11-19T07:37:48.846Z,4.95
2022-11-19T07:42:47.971Z,5.79
2022-11-19T07:47:49.107Z,5.31
2022-11-19T07:52:50.216Z,4.98
2022-11-19T07:57:51.315Z,5.15
2022-11-19T08:02:52.420Z,5.97
2022-11-19T08:07:53.617Z,5.80
2022-11-19T08:12:55.737Z,4.82
2022-11-19T08:17:54.837Z,5.80
2022-11-19T08:22:56.920Z,5.97
2022-11-19T08:27:56.069Z,5.80
2022-11-19T08:32:58.178Z,5.63
2022-11-19T08:37:57.281Z,4.98
2022-11-19T08:42:58.405Z,4.82
2022-11-19T08:47:59.546Z,6.13
2022-11-19T08:53:00.754Z,5.97
2022-11-19T08:58:02.870Z,5.80
2022-11-19T09:03:01.949Z,5.29
2022-11-19T09:08:05.421Z,6.09
2022-11-19T09:13:02.608Z,5.11
2022-11-19T09:18:03.762Z,5.29
2022-11-19T09:23:03.900Z,5.11
2022-11-19T09:28:05.208Z,5.11
2022-11-19T09:33:08.348Z,6.09
2022-11-19T09:38:19.288Z,6.27
2022-11-19T09:43:14.975Z,5.73
2022-11-19T09:48:10.384Z,5.55
2022-11-19T09:53:09.540Z,5.73
2022-11-19T09:58:11.659Z,5.96
2022-11-19T10:03:10.849Z,5.58
2022-11-19T10:08:11.988Z,5.77
2022-11-19T10:13:13.196Z,5.58
2022-11-19T10:18:13.265Z,6.54
2022-11-19T10:23:14.355Z,5.96
2022-11-19T10:28:15.487Z,5.96
2022-11-19T10:33:16.582Z,6.15
2022-11-19T10:38:18.667Z,5.58
2022-11-19T10:43:22.071Z,6.14
2022-11-19T10:48:17.867Z,5.94
2022-11-19T10:53:19.965Z,5.94
2022-11-19T10:58:20.060Z,6.27
2022-11-19T11:03:20.136Z,5.32
2022-11-19T11:08:20.262Z,5.94
2022-11-19T11:13:19.420Z,4.67
2022-11-19T11:18:20.574Z,5.10
2022-11-19T11:23:21.704Z,5.32
2022-11-19T11:28:23.815Z,4.89
2022-11-19T11:33:24.056Z,5.62
2022-11-19T11:38:24.151Z,5.17
2022-11-19T11:43:23.283Z,6.12
2022-11-19T11:48:24.447Z,4.94
2022-11-19T11:53:27.557Z,4.70
2022-11-19T11:58:26.750Z,4.94
2022-11-19T12:03:28.841Z,4.22
2022-11-19T12:08:28.940Z,5.39
2022-11-19T12:13:29.079Z,4.94
2022-11-19T12:18:29.200Z,5.17
2022-11-19T12:23:29.318Z,6.34
2022-11-19T12:28:29.433Z,5.17
2022-11-19T12:33:29.539Z,6.34
2022-11-19T12:38:29.657Z,4.47
2022-11-19T12:43:29.754Z,3.98
2022-11-19T12:48:28.877Z,4.70
2022-11-19T12:53:29.963Z,4.94
2022-11-19T12:58:31.106Z,5.17
2022-11-19T13:03:32.241Z,5.84
2022-11-19T13:08:33.353Z,6.14
2022-11-19T13:13:35.474Z,6.34
2022-11-19T13:18:35.626Z,5.38
2022-11-19T13:23:34.796Z,5.18
2022-11-19T13:28:35.944Z,5.38
2022-11-19T13:33:38.054Z,4.98
2022-11-19T13:38:37.234Z,5.38
2022-11-19T13:43:38.726Z,5.77
2022-11-19T13:48:37.883Z,5.58
2022-11-19T13:53:39.147Z,5.77
2022-11-19T13:58:40.373Z,5.77
2022-11-19T14:03:41.614Z,5.77
2022-11-19T14:08:43.137Z,6.15
2022-11-19T14:13:43.249Z,5.96
2022-11-19T14:18:43.369Z,5.77
2022-11-19T14:23:42.580Z,5.18
2022-11-19T14:28:43.767Z,5.37
2022-11-19T14:33:44.941Z,5.37
2022-11-19T14:38:47.103Z,5.55
2022-11-19T14:43:46.328Z,5.37
2022-11-19T14:48:47.678Z,5.55
2022-11-19T14:53:49.850Z,5.55
2022-11-19T14:58:48.945Z,5.55
2022-11-19T15:03:51.090Z,5.73
2022-11-19T15:08:50.207Z,5.73
2022-11-19T15:13:52.298Z,5.73
2022-11-19T15:18:51.435Z,5.73
2022-11-19T15:23:52.635Z,5.73
2022-11-19T15:28:53.733Z,5.91
2022-11-19T15:33:55.067Z,5.73
2022-11-19T15:38:57.259Z,5.73
2022-11-19T15:43:56.549Z,5.55
2022-11-19T15:48:58.724Z,5.73
2022-11-19T15:53:57.906Z,5.91
2022-11-19T15:58:59.097Z,5.73
2022-11-19T16:04:00.323Z,6.27
2022-11-19T16:09:02.447Z,6.09
2022-11-19T16:14:02.548Z,6.27
2022-11-19T16:19:01.911Z,5.46
2022-11-19T16:24:04.051Z,4.76
2022-11-19T16:29:03.252Z,5.11
2022-11-19T16:34:05.447Z,4.58
2022-11-19T16:39:04.575Z,4.99
2022-11-19T16:44:05.708Z,5.18
2022-11-19T16:49:08.858Z,4.39
2022-11-19T16:54:08.042Z,4.02
2022-11-19T16:59:09.248Z,4.02
2022-11-19T17:04:10.599Z,4.94
2022-11-19T17:09:12.065Z,5.11
2022-11-19T17:14:17.414Z,4.94
2022-11-19T17:19:14.667Z,4.76
2022-11-19T17:24:15.868Z,4.21
2022-11-19T17:29:18.247Z,4.02
2022-11-19T17:34:18.408Z,3.84
2022-11-19T17:39:22.549Z,3.64
2022-11-19T17:44:18.273Z,4.02
2022-11-19T17:49:17.859Z,4.39
2022-11-19T17:54:19.437Z,4.58
2022-11-19T17:59:19.431Z,5.11
2022-11-19T18:04:19.269Z,5.11
2022-11-19T18:09:19.445Z,5.29
2022-11-19T18:15:03.205Z,5.29
2022-11-19T18:19:18.737Z,5.11
2022-11-19T18:24:18.321Z,5.11
2022-11-19T18:29:20.128Z,4.76
2022-11-19T18:34:19.636Z,4.39
2022-11-19T18:39:20.596Z,4.76
2022-11-19T18:44:20.249Z,4.39
2022-11-19T18:49:19.961Z,4.58
2022-11-19T18:54:19.553Z,4.58
2022-11-19T18:59:19.372Z,4.76
2022-11-19T19:04:20.509Z,4.58
2022-11-19T19:09:20.674Z,4.94
2022-11-19T19:14:20.342Z,5.11
2022-11-19T19:19:22.090Z,5.11
2022-11-19T19:24:22.820Z,5.29
2022-11-19T19:29:23.316Z,4.94
2022-11-19T19:34:23.328Z,4.58
2022-11-19T19:39:24.397Z,4.58
2022-11-19T19:44:22.395Z,4.58
2022-11-19T19:49:22.531Z,4.76
2022-11-19T19:54:22.170Z,5.29
2022-11-19T19:59:21.817Z,5.11
2022-11-19T20:04:21.367Z,5.11
2022-11-19T20:09:20.855Z,4.31
2022-11-19T20:14:20.301Z,4.65
2022-11-19T20:20:05.775Z,4.48
2022-11-19T20:24:21.021Z,4.65
2022-11-19T20:29:22.937Z,4.82
2022-11-19T20:34:22.862Z,4.65
2022-11-19T20:39:22.489Z,4.98
2022-11-19T20:44:22.704Z,5.15
2022-11-19T20:49:23.710Z,5.31
2022-11-19T20:54:23.362Z,5.31
2022-11-19T20:59:25.815Z,5.47
2022-11-19T21:04:25.444Z,5.47
2022-11-19T21:09:25.406Z,5.47
2022-11-19T21:14:25.431Z,5.31
2022-11-19T21:19:24.903Z,5.31
2022-11-19T21:24:28.043Z,5.31
2022-11-19T21:29:27.258Z,5.15
2022-11-19T21:34:28.569Z,4.98
2022-11-19T21:39:29.845Z,4.82
2022-11-19T21:44:31.186Z,4.82
2022-11-19T21:49:32.503Z,4.82
2022-11-19T21:54:33.775Z,4.82
2022-11-19T21:59:34.988Z,4.65
2022-11-19T22:04:36.092Z,4.65
2022-11-19T22:09:37.353Z,4.65
2022-11-19T22:14:38.642Z,4.98
2022-11-19T22:19:39.796Z,4.82
